Time;durP1;ratioP1;P1;durP2;ratioP2;P2;SDS_P1;SDS_P2;PMS_P1;PMS_P2;Temp;Humidity;BMP_temperature;BMP_pressure;BME280_temperature;BME280_humidity;BME280_pressure;Samples;Min_cycle;Max_cycle;Signal;HPM_P1;HPM_P2
2021/01/03 05:00:32;;;;;;;23.33;17.33;;;1.50;99.90;;;;;;5940747;23;20389;-65
2021/01/03 05:03:32;;;;;;;25.27;17.87;;;1.50;99.90;;;;;;4976154;28;20435;-64
2021/01/03 05:06:05;;;;;;;25.10;17.80;;;1.50;99.90;;;;;;4966700;28;21051;-65
2021/01/03 05:08:36;;;;;;;26.27;18.60;;;1.50;99.90;;;;;;4975589;28;20447;-65
2021/01/03 05:11:07;;;;;;;21.60;17.10;;;1.50;99.90;;;;;;4975796;28;20481;-65
2021/01/03 05:13:43;;;;;;;20.47;16.37;;;1.50;99.90;;;;;;4975625;28;20447;-65
2021/01/03 05:16:11;;;;;;;25.90;18.37;;;1.50;99.90;;;;;;4975498;28;20435;-65
2021/01/03 05:18:37;;;;;;;23.77;18.17;;;1.50;99.90;;;;;;4975397;28;20521;-65
2021/01/03 05:21:06;;;;;;;25.30;18.20;;;1.60;99.90;;;;;;4975265;28;20483;-64
2021/01/03 05:23:35;;;;;;;20.87;16.23;;;1.60;99.90;;;;;;4975149;28;20512;-63
2021/01/03 05:26:02;;;;;;;25.73;19.43;;;1.60;99.90;;;;;;4974977;28;20510;-65
2021/01/03 05:28:31;;;;;;;24.13;17.17;;;1.60;99.90;;;;;;4975158;28;20828;-64
2021/01/03 05:31:12;;;;;;;22.90;17.37;;;1.60;99.90;;;;;;4973997;28;20478;-64
2021/01/03 05:33:50;;;;;;;25.90;18.67;;;1.60;99.90;;;;;;4975388;28;20486;-66
2021/01/03 05:36:28;;;;;;;23.27;17.90;;;1.60;99.90;;;;;;4974945;28;20435;-66
2021/01/03 05:38:54;;;;;;;25.57;18.67;;;1.60;99.90;;;;;;4975069;28;20446;-64
2021/01/03 05:41:31;;;;;;;23.50;17.37;;;1.60;99.90;;;;;;4975046;28;20669;-65
2021/01/03 05:44:09;;;;;;;23.13;17.33;;;1.60;99.90;;;;;;4975259;28;20442;-66
2021/01/03 05:46:40;;;;;;;23.27;17.60;;;1.70;99.90;;;;;;4974765;28;20998;-64
2021/01/03 05:49:10;;;;;;;24.07;17.37;;;1.70;99.90;;;;;;4975865;28;20806;-64
2021/01/03 05:51:43;;;;;;;24.17;18.03;;;1.60;99.90;;;;;;4975689;28;20479;-65
2021/01/03 05:54:13;;;;;;;24.63;18.10;;;1.70;99.90;;;;;;4975397;28;20490;-65
2021/01/03 05:56:40;;;;;;;23.43;16.93;;;1.70;99.90;;;;;;4975198;28;20972;-65
2021/01/03 05:59:07;;;;;;;24.53;18.40;;;1.70;99.90;;;;;;4975429;28;20459;-65
2021/01/03 06:01:35;;;;;;;22.20;17.07;;;1.70;99.90;;;;;;4974895;28;20490;-64
2021/01/03 06:04:06;;;;;;;22.27;16.63;;;1.60;99.90;;;;;;4974872;28;20462;-64
2021/01/03 06:07:02;;;;;;;24.27;18.20;;;1.50;99.90;;;;;;4975356;28;20473;-64
2021/01/03 06:09:34;;;;;;;22.20;17.43;;;1.50;99.90;;;;;;4974770;28;20802;-64
2021/01/03 06:12:03;;;;;;;23.10;17.43;;;1.60;99.90;;;;;;4974877;28;20513;-64
2021/01/03 06:14:29;;;;;;;22.57;17.00;;;1.60;99.90;;;;;;4974578;28;20463;-64
2021/01/03 06:17:05;;;;;;;22.10;17.27;;;1.50;99.90;;;;;;4974637;28;20477;-64
2021/01/03 06:19:37;;;;;;;23.17;17.13;;;1.50;99.90;;;;;;4974842;28;20446;-65
2021/01/03 06:22:10;;;;;;;22.50;16.57;;;1.50;99.90;;;;;;4974440;28;20976;-65
2021/01/03 06:24:41;;;;;;;24.53;17.20;;;1.50;99.90;;;;;;4974658;28;20474;-65
2021/01/03 06:27:14;;;;;;;26.97;17.83;;;1.50;99.90;;;;;;4977613;28;20499;-65
2021/01/03 06:29:47;;;;;;;20.80;16.37;;;1.50;99.90;;;;;;4980522;28;20439;-65
2021/01/03 06:32:44;;;;;;;21.93;16.63;;;1.60;99.90;;;;;;4975845;28;20870;-65
2021/01/03 06:35:24;;;;;;;21.33;16.47;;;1.50;99.90;;;;;;4974666;28;20454;-65
2021/01/03 06:37:56;;;;;;;25.00;17.20;;;1.50;99.90;;;;;;4978466;28;20438;-65
2021/01/03 06:40:27;;;;;;;26.27;17.43;;;1.50;99.90;;;;;;4978573;28;20806;-65
2021/01/03 06:43:18;;;;;;;24.87;17.73;;;1.50;99.90;;;;;;4977015;28;20443;-66
2021/01/03 06:46:36;;;;;;;21.17;17.23;;;1.60;99.90;;;;;;4978081;28;20462;-65
2021/01/03 06:49:36;;;;;;;24.17;18.07;;;1.60;99.90;;;;;;4978013;28;20782;-65
2021/01/03 06:52:26;;;;;;;23.30;18.10;;;1.60;99.90;;;;;;4978033;28;20477;-65
2021/01/03 06:55:38;;;;;;;25.50;17.93;;;1.60;99.90;;;;;;4978161;28;20431;-65
2021/01/03 06:58:34;;;;;;;23.00;17.63;;;1.50;99.90;;;;;;4977874;28;20442;-65
2021/01/03 07:01:04;;;;;;;24.10;16.70;;;1.40;99.90;;;;;;4977710;28;20490;-65
2021/01/03 07:03:34;;;;;;;25.10;17.67;;;1.50;99.90;;;;;;4977467;28;20447;-65
2021/01/03 07:06:03;;;;;;;23.13;17.83;;;1.40;99.90;;;;;;4977437;28;20479;-65
2021/01/03 07:08:36;;;;;;;25.20;17.77;;;1.40;99.90;;;;;;4977767;28;20454;-65
2021/01/03 07:11:02;;;;;;;24.10;17.17;;;1.50;99.90;;;;;;4977483;28;20855;-64
2021/01/03 07:13:39;;;;;;;23.90;17.07;;;1.50;99.90;;;;;;4977350;28;20458;-64
2021/01/03 07:16:10;;;;;;;24.27;17.13;;;1.60;99.90;;;;;;4977648;28;20464;-63
2021/01/03 07:18:48;;;;;;;26.33;19.00;;;1.60;99.90;;;;;;4978117;28;20446;-63
2021/01/03 07:21:26;;;;;;;25.67;17.70;;;1.50;99.90;;;;;;4977327;28;20489;-63
2021/01/03 07:24:15;;;;;;;24.63;18.83;;;1.60;99.90;;;;;;4978023;28;20435;-67
2021/01/03 07:26:45;;;;;;;25.87;18.80;;;1.70;99.90;;;;;;4977166;28;20510;-64
2021/01/03 07:29:16;;;;;;;26.10;17.90;;;1.60;99.90;;;;;;4977415;28;20482;-65
2021/01/03 07:31:59;;;;;;;23.80;17.03;;;1.70;99.90;;;;;;4976858;28;20474;-65
2021/01/03 07:34:28;;;;;;;24.73;16.67;;;1.80;99.90;;;;;;4976738;28;20450;-64
2021/01/03 07:36:57;;;;;;;22.63;16.90;;;1.80;99.90;;;;;;4980342;28;20474;-65
2021/01/03 07:39:28;;;;;;;24.93;16.60;;;1.80;99.90;;;;;;4982162;28;20553;-64
2021/01/03 07:42:18;;;;;;;22.87;16.57;;;1.90;99.90;;;;;;4981761;28;20474;-65
2021/01/03 07:44:45;;;;;;;24.43;17.47;;;1.90;99.90;;;;;;4981941;28;20490;-65
2021/01/03 07:47:32;;;;;;;24.80;18.73;;;1.90;99.90;;;;;;4976878;28;20485;-65
2021/01/03 07:50:20;;;;;;;26.20;23.40;;;1.90;99.90;;;;;;4975653;28;20461;-65
2021/01/03 07:52:46;;;;;;;24.13;19.33;;;2.00;99.90;;;;;;4976909;28;20203;-66
2021/01/03 07:55:24;;;;;;;24.73;18.50;;;2.10;99.90;;;;;;4989805;23;20479;-63
2021/01/03 07:57:59;;;;;;;23.47;18.10;;;2.20;99.90;;;;;;4976195;28;20443;-61
2021/01/03 08:00:27;;;;;;;24.10;17.07;;;2.20;99.90;;;;;;4979671;28;20442;-60
2021/01/03 08:02:57;;;;;;;24.60;17.43;;;2.20;99.90;;;;;;4976880;28;20455;-61
2021/01/03 08:05:25;;;;;;;20.87;16.27;;;2.20;99.90;;;;;;4975753;28;20479;-60
2021/01/03 08:08:01;;;;;;;23.57;17.63;;;2.30;99.90;;;;;;4975923;28;20462;-60
2021/01/03 08:10:28;;;;;;;22.07;17.00;;;2.40;99.90;;;;;;4975766;28;20464;-61
2021/01/03 08:13:02;;;;;;;24.40;18.83;;;2.40;99.90;;;;;;4975520;28;20555;-64
2021/01/03 08:15:32;;;;;;;21.57;16.37;;;2.40;99.90;;;;;;4975535;28;20561;-64
2021/01/03 08:18:04;;;;;;;20.80;17.60;;;2.40;99.90;;;;;;4975637;28;20462;-65
2021/01/03 08:20:31;;;;;;;20.27;15.87;;;2.40;99.90;;;;;;4975406;28;20454;-64
2021/01/03 08:23:22;;;;;;;21.00;16.50;;;2.40;99.90;;;;;;4976188;28;20494;-64
2021/01/03 08:25:48;;;;;;;20.20;15.93;;;2.50;99.90;;;;;;4975043;28;20482;-62
2021/01/03 08:28:19;;;;;;;20.63;16.23;;;2.50;99.90;;;;;;4975015;28;20462;-64
2021/01/03 08:30:48;;;;;;;22.63;17.17;;;2.50;99.90;;;;;;4974850;28;20501;-62
2021/01/03 08:33:20;;;;;;;23.67;17.47;;;2.50;99.90;;;;;;4975254;28;20562;-65
2021/01/03 08:35:47;;;;;;;22.37;16.30;;;2.70;99.90;;;;;;4975027;28;21016;-65
2021/01/03 08:38:13;;;;;;;19.73;16.30;;;2.80;99.90;;;;;;4975514;28;20462;-66
2021/01/03 08:40:42;;;;;;;20.00;16.53;;;2.80;99.90;;;;;;4975358;28;20439;-64
2021/01/03 08:43:13;;;;;;;21.33;16.43;;;2.70;99.90;;;;;;4975628;28;20459;-65
2021/01/03 08:45:41;;;;;;;19.87;15.60;;;2.80;99.90;;;;;;4974979;28;21056;-65
2021/01/03 08:48:12;;;;;;;20.80;17.20;;;2.80;99.90;;;;;;4975621;28;20458;-64
2021/01/03 08:50:40;;;;;;;19.60;16.67;;;2.90;99.90;;;;;;4975857;28;20478;-65
2021/01/03 08:53:10;;;;;;;19.17;15.90;;;2.90;99.90;;;;;;4976216;28;20510;-64
2021/01/03 08:55:38;;;;;;;19.77;15.50;;;2.80;99.90;;;;;;4975938;28;20860;-64
2021/01/03 08:58:13;;;;;;;21.63;17.00;;;2.90;99.90;;;;;;4976442;28;20459;-63
2021/01/03 09:00:41;;;;;;;20.03;16.67;;;2.90;99.90;;;;;;4976236;28;20438;-65
2021/01/03 09:03:15;;;;;;;19.57;15.43;;;2.90;99.90;;;;;;4975618;28;20439;-66
2021/01/03 09:05:43;;;;;;;20.20;16.23;;;3.00;99.90;;;;;;4977222;28;20493;-64
2021/01/03 09:08:16;;;;;;;19.23;16.57;;;3.00;99.90;;;;;;4976284;28;20529;-64
2021/01/03 09:10:43;;;;;;;19.00;15.47;;;3.00;99.90;;;;;;4976071;28;20443;-63
2021/01/03 09:13:24;;;;;;;18.50;15.27;;;3.00;99.90;;;;;;4975807;28;20543;-65
2021/01/03 09:16:13;;;;;;;19.00;16.40;;;3.00;99.90;;;;;;4976575;28;20474;-65
2021/01/03 09:18:50;;;;;;;20.30;16.47;;;3.00;99.90;;;;;;4975341;28;20505;-65
2021/01/03 09:21:17;;;;;;;19.70;16.27;;;3.00;99.90;;;;;;4974994;28;20442;-65
2021/01/03 09:23:46;;;;;;;18.97;14.83;;;3.00;99.90;;;;;;4974864;28;20465;-64
2021/01/03 09:26:13;;;;;;;21.80;16.07;;;3.10;99.90;;;;;;4974950;28;20482;-64
2021/01/03 09:28:41;;;;;;;20.27;17.03;;;3.10;99.90;;;;;;4975140;28;20458;-65
2021/01/03 09:31:17;;;;;;;22.60;17.50;;;3.10;99.90;;;;;;4976259;28;20454;-63
2021/01/03 09:33:48;;;;;;;18.90;15.87;;;3.40;99.90;;;;;;4975837;28;20439;-64
2021/01/03 09:36:27;;;;;;;18.10;16.00;;;3.40;99.90;;;;;;4975457;28;20471;-63
2021/01/03 09:39:27;;;;;;;19.27;15.73;;;3.50;99.90;;;;;;4975292;28;20443;-64
2021/01/03 09:42:17;;;;;;;19.00;15.37;;;3.60;99.90;;;;;;4976119;28;20442;-62
2021/01/03 09:44:51;;;;;;;20.13;16.30;;;3.70;99.90;;;;;;4975818;28;20475;-64
2021/01/03 09:47:17;;;;;;;19.50;15.00;;;3.90;99.90;;;;;;4976046;28;20470;-65
2021/01/03 09:49:46;;;;;;;17.00;15.20;;;4.00;99.90;;;;;;4975813;28;20455;-63
2021/01/03 09:52:24;;;;;;;18.37;15.47;;;3.90;99.90;;;;;;4975635;28;20458;-63
2021/01/03 09:54:58;;;;;;;17.00;14.20;;;3.90;99.90;;;;;;4975541;28;20486;-63
2021/01/03 09:57:34;;;;;;;16.30;14.60;;;4.10;99.90;;;;;;4975518;28;20446;-63
2021/01/03 10:00:00;;;;;;;18.70;14.33;;;4.40;99.90;;;;;;4976246;28;20474;-64
2021/01/03 10:02:27;;;;;;;14.33;12.83;;;4.50;99.90;;;;;;4974927;28;20459;-65
2021/01/03 10:04:54;;;;;;;16.07;13.07;;;4.70;99.90;;;;;;4974246;28;20816;-63
2021/01/03 10:07:24;;;;;;;15.80;14.20;;;4.80;99.90;;;;;;4975477;28;20518;-63
2021/01/03 10:09:57;;;;;;;15.43;13.40;;;4.80;99.90;;;;;;4974951;28;20445;-65
2021/01/03 10:12:35;;;;;;;13.93;12.30;;;4.90;99.90;;;;;;4974734;28;20438;-63
2021/01/03 10:15:09;;;;;;;16.67;14.07;;;4.70;99.90;;;;;;4975199;28;20470;-65
2021/01/03 10:17:36;;;;;;;13.70;12.13;;;4.90;99.90;;;;;;4976184;28;20435;-63
2021/01/03 10:20:15;;;;;;;15.53;13.63;;;5.10;99.90;;;;;;4979184;28;20560;-63
2021/01/03 10:22:43;;;;;;;14.90;13.33;;;5.10;99.90;;;;;;4979052;28;20938;-63
2021/01/03 10:25:12;;;;;;;15.67;14.00;;;5.30;99.90;;;;;;4979291;28;21004;-62
2021/01/03 10:27:39;;;;;;;17.00;15.27;;;5.20;99.90;;;;;;4979065;28;20533;-63
2021/01/03 10:30:08;;;;;;;17.97;15.10;;;5.00;99.90;;;;;;4979061;28;20458;-63
2021/01/03 10:32:35;;;;;;;16.57;14.90;;;5.00;99.90;;;;;;4979061;28;20463;-63
2021/01/03 10:35:01;;;;;;;15.80;14.20;;;5.00;99.90;;;;;;4979359;28;20501;-62
2021/01/03 10:37:28;;;;;;;14.70;13.30;;;5.00;99.90;;;;;;4979149;28;20458;-62
2021/01/03 10:39:54;;;;;;;17.50;14.90;;;5.10;99.90;;;;;;4978853;28;20454;-63
2021/01/03 10:42:21;;;;;;;19.00;15.20;;;5.20;99.90;;;;;;4979131;28;20465;-65
2021/01/03 10:44:47;;;;;;;16.30;14.60;;;5.20;99.90;;;;;;4978525;28;20485;-65
2021/01/03 10:47:14;;;;;;;16.47;14.40;;;5.10;99.90;;;;;;4978526;28;20474;-64
2021/01/03 10:49:40;;;;;;;17.30;15.43;;;5.10;99.90;;;;;;4978435;28;20876;-64
2021/01/03 10:52:06;;;;;;;17.80;15.33;;;4.90;99.90;;;;;;4978630;28;20455;-64
2021/01/03 10:54:33;;;;;;;16.13;14.43;;;4.80;99.90;;;;;;4978302;28;20478;-63
2021/01/03 10:56:59;;;;;;;17.23;14.80;;;4.60;99.90;;;;;;4978502;28;20435;-63
2021/01/03 10:59:27;;;;;;;17.10;14.47;;;4.60;99.90;;;;;;4978879;28;20462;-64
2021/01/03 11:01:54;;;;;;;17.90;14.57;;;4.60;99.90;;;;;;4980868;28;20482;-63
2021/01/03 11:04:22;;;;;;;17.17;15.30;;;4.50;99.90;;;;;;4979655;28;20482;-64
2021/01/03 11:06:50;;;;;;;17.53;14.67;;;4.50;99.90;;;;;;4978392;28;20482;-64
2021/01/03 11:09:18;;;;;;;20.13;15.10;;;4.50;99.90;;;;;;4978122;28;20509;-64
2021/01/03 11:11:45;;;;;;;19.33;16.37;;;4.40;99.90;;;;;;4978143;28;20450;-66
2021/01/03 11:14:12;;;;;;;16.83;15.10;;;4.30;99.90;;;;;;4977998;28;20439;-64
2021/01/03 11:16:40;;;;;;;19.33;16.50;;;4.40;99.90;;;;;;4977953;28;20436;-63
2021/01/03 11:19:09;;;;;;;20.47;16.23;;;4.40;99.90;;;;;;4977767;28;20459;-63
2021/01/03 11:21:35;;;;;;;15.83;14.10;;;4.30;99.90;;;;;;4978571;28;20455;-62
2021/01/03 11:24:01;;;;;;;23.13;17.77;;;4.10;99.90;;;;;;4977933;28;20465;-61
2021/01/03 11:26:29;;;;;;;18.03;16.03;;;4.30;99.90;;;;;;4977624;28;20475;-63
2021/01/03 11:28:57;;;;;;;24.80;20.37;;;4.50;99.90;;;;;;4977494;28;20946;-64
2021/01/03 11:31:29;;;;;;;23.13;20.07;;;4.50;99.90;;;;;;4977518;28;20459;-66
2021/01/03 11:33:56;;;;;;;19.87;17.50;;;4.50;99.90;;;;;;4977656;28;20471;-63
2021/01/03 11:36:22;;;;;;;18.53;16.63;;;4.40;99.90;;;;;;4977668;28;20471;-65
2021/01/03 11:38:49;;;;;;;19.00;17.00;;;4.40;99.90;;;;;;4977875;28;20459;-64
2021/01/03 11:41:15;;;;;;;20.23;16.70;;;4.40;99.90;;;;;;4977233;28;20960;-63
2021/01/03 11:43:41;;;;;;;20.60;17.70;;;4.30;99.90;;;;;;4977248;28;20458;-65
2021/01/03 11:46:07;;;;;;;17.30;15.50;;;4.30;99.90;;;;;;4977169;28;20490;-64
2021/01/03 11:48:33;;;;;;;19.50;16.50;;;4.20;99.90;;;;;;4977518;28;20517;-64
2021/01/03 11:51:01;;;;;;;23.97;16.37;;;4.10;99.90;;;;;;4977495;28;20459;-63
2021/01/03 11:53:27;;;;;;;18.53;15.80;;;4.00;99.90;;;;;;4977417;28;20454;-64
2021/01/03 11:55:53;;;;;;;20.10;16.43;;;3.90;99.90;;;;;;4976872;28;20478;-65
2021/01/03 11:58:19;;;;;;;21.20;16.63;;;3.70;99.90;;;;;;4977265;28;20461;-63
2021/01/03 12:00:45;;;;;;;19.00;16.20;;;3.70;99.90;;;;;;4976942;28;20937;-63
2021/01/03 12:03:11;;;;;;;20.93;17.23;;;3.70;99.90;;;;;;4977192;28;20458;-64
2021/01/03 12:05:38;;;;;;;21.00;17.30;;;3.70;99.90;;;;;;4978030;28;20478;-63
2021/01/03 12:08:06;;;;;;;23.30;18.83;;;3.60;99.90;;;;;;4977383;28;20485;-64
2021/01/03 12:10:32;;;;;;;23.10;18.87;;;3.50;99.90;;;;;;4977438;28;20461;-64
2021/01/03 12:12:58;;;;;;;23.27;19.40;;;3.50;99.90;;;;;;4977121;28;20513;-64
2021/01/03 12:15:24;;;;;;;24.67;18.27;;;3.50;99.90;;;;;;4976970;28;20481;-64
2021/01/03 12:17:50;;;;;;;21.93;17.47;;;3.50;99.90;;;;;;4977581;28;20468;-63
2021/01/03 12:20:17;;;;;;;23.40;18.87;;;3.50;99.90;;;;;;4980933;28;20459;-63
2021/01/03 12:22:43;;;;;;;20.40;16.57;;;3.50;99.90;;;;;;4979147;28;20451;-63
2021/01/03 12:25:12;;;;;;;21.20;17.13;;;3.50;99.90;;;;;;4977865;28;20481;-64
2021/01/03 12:27:38;;;;;;;22.20;18.10;;;3.50;99.90;;;;;;4977058;28;20482;-63
2021/01/03 12:30:06;;;;;;;21.00;17.70;;;3.60;99.90;;;;;;4977281;28;21015;-63
2021/01/03 12:32:32;;;;;;;21.23;17.93;;;3.60;99.90;;;;;;4980438;28;20439;-64
2021/01/03 12:34:58;;;;;;;19.80;17.33;;;3.60;99.90;;;;;;4976898;28;20540;-63
2021/01/03 12:37:24;;;;;;;20.80;17.70;;;3.60;99.90;;;;;;4978117;28;20446;-64
2021/01/03 12:39:51;;;;;;;19.90;16.03;;;3.60;99.90;;;;;;4975997;28;20510;-63
2021/01/03 12:42:20;;;;;;;23.47;18.70;;;3.60;99.90;;;;;;4975675;28;20435;-62
2021/01/03 12:44:48;;;;;;;23.83;19.10;;;3.70;99.90;;;;;;4976020;28;20475;-63
2021/01/03 12:47:15;;;;;;;26.33;17.00;;;3.70;99.90;;;;;;4975523;28;20474;-62
2021/01/03 12:49:41;;;;;;;22.77;18.10;;;3.70;99.90;;;;;;4975698;28;20458;-62
2021/01/03 12:52:07;;;;;;;18.80;16.80;;;3.80;99.90;;;;;;4976359;28;20455;-63
2021/01/03 12:54:34;;;;;;;19.20;16.53;;;3.70;99.90;;;;;;4975979;28;20491;-62
2021/01/03 12:57:00;;;;;;;25.10;20.30;;;3.80;99.90;;;;;;4976883;28;20445;-62
2021/01/03 12:59:28;;;;;;;20.63;18.03;;;3.80;99.90;;;;;;4977024;28;20512;-66
2021/01/03 13:01:54;;;;;;;19.53;16.57;;;3.70;99.90;;;;;;4976767;28;20443;-63
2021/01/03 13:04:21;;;;;;;18.17;16.10;;;3.70;99.90;;;;;;4976125;28;20442;-64
2021/01/03 13:06:48;;;;;;;20.40;17.23;;;3.80;99.90;;;;;;4975492;28;20463;-63
2021/01/03 13:09:18;;;;;;;19.13;16.50;;;3.80;99.90;;;;;;4975396;28;20445;-63
2021/01/03 13:11:44;;;;;;;19.87;16.50;;;3.90;99.90;;;;;;4975102;28;20933;-64
2021/01/03 13:14:12;;;;;;;19.70;17.00;;;4.00;99.90;;;;;;4975211;28;20466;-62
2021/01/03 13:16:39;;;;;;;19.40;17.23;;;4.00;99.90;;;;;;4975107;28;20455;-63
2021/01/03 13:19:07;;;;;;;20.20;16.80;;;4.00;99.90;;;;;;4975367;28;20455;-63
2021/01/03 13:21:33;;;;;;;20.73;17.47;;;4.00;99.90;;;;;;4975325;28;20984;-63
2021/01/03 13:24:00;;;;;;;18.53;16.60;;;4.00;99.90;;;;;;4975747;28;20459;-63
2021/01/03 13:26:27;;;;;;;18.40;16.40;;;4.10;99.90;;;;;;4976096;28;20525;-63
2021/01/03 13:28:53;;;;;;;22.40;16.97;;;4.10;99.90;;;;;;4978149;28;20533;-62
2021/01/03 13:31:20;;;;;;;20.90;17.47;;;4.00;99.90;;;;;;4977363;28;20865;-62
2021/01/03 13:33:47;;;;;;;19.40;16.50;;;3.90;99.90;;;;;;4977564;28;20451;-63
2021/01/03 13:36:14;;;;;;;20.97;17.87;;;3.90;99.90;;;;;;4976221;28;20525;-63
2021/01/03 13:38:40;;;;;;;23.30;18.20;;;3.80;99.90;;;;;;4976054;28;20455;-63
2021/01/03 13:41:09;;;;;;;20.30;17.30;;;3.80;99.90;;;;;;4975172;28;20486;-63
2021/01/03 13:43:35;;;;;;;24.00;17.40;;;3.80;99.90;;;;;;4975527;28;20459;-63
2021/01/03 13:46:03;;;;;;;22.33;17.77;;;3.70;99.90;;;;;;4975942;28;20529;-63
2021/01/03 13:48:29;;;;;;;21.83;17.87;;;3.70;99.90;;;;;;4975231;28;20454;-63
2021/01/03 13:50:56;;;;;;;22.67;17.47;;;3.70;99.90;;;;;;4975169;28;20462;-62
2021/01/03 13:53:22;;;;;;;23.63;18.37;;;3.60;99.90;;;;;;4977215;28;20462;-63
2021/01/03 13:55:49;;;;;;;21.37;17.27;;;3.70;99.90;;;;;;4978557;28;20493;-63
2021/01/03 13:58:16;;;;;;;22.93;18.00;;;3.80;99.90;;;;;;4979177;28;20465;-63
2021/01/03 14:00:42;;;;;;;21.90;18.30;;;3.90;99.90;;;;;;4979224;28;20524;-64
2021/01/03 14:03:09;;;;;;;20.37;18.07;;;3.90;99.90;;;;;;4985023;28;20455;-63
2021/01/03 14:05:39;;;;;;;21.77;17.67;;;4.00;99.90;;;;;;4980084;28;20529;-62
2021/01/03 14:08:08;;;;;;;21.73;18.27;;;4.00;99.90;;;;;;4978765;28;20470;-63
2021/01/03 14:10:35;;;;;;;21.50;18.20;;;3.90;99.90;;;;;;4979024;28;20454;-63
2021/01/03 14:13:01;;;;;;;23.77;20.40;;;3.90;99.90;;;;;;4979503;28;20459;-62
2021/01/03 14:15:27;;;;;;;26.27;20.80;;;3.80;99.90;;;;;;4979845;28;20505;-63
2021/01/03 14:17:54;;;;;;;25.37;19.80;;;3.90;99.90;;;;;;4978034;28;21116;-62
2021/01/03 14:20:23;;;;;;;23.13;18.30;;;3.90;99.90;;;;;;4978309;28;20454;-62
2021/01/03 14:22:49;;;;;;;27.63;19.57;;;3.70;99.90;;;;;;4978222;28;20478;-63
2021/01/03 14:25:19;;;;;;;24.73;20.87;;;3.70;99.90;;;;;;4978061;28;20488;-63
2021/01/03 14:27:46;;;;;;;33.67;26.00;;;3.70;99.90;;;;;;4978182;28;20520;-62
2021/01/03 14:30:13;;;;;;;34.03;23.63;;;3.60;99.90;;;;;;4983481;28;20512;-63
2021/01/03 14:32:43;;;;;;;27.77;21.70;;;3.60;99.90;;;;;;4986786;28;20454;-63
2021/01/03 14:35:10;;;;;;;29.97;21.27;;;3.60;99.90;;;;;;4987748;28;20546;-63
2021/01/03 14:37:40;;;;;;;27.00;20.70;;;3.60;99.90;;;;;;4986647;28;20450;-63
2021/01/03 14:40:10;;;;;;;22.93;19.20;;;3.60;99.90;;;;;;4988114;28;20512;-63
2021/01/03 14:42:42;;;;;;;27.87;21.60;;;3.60;99.90;;;;;;4981449;28;20445;-63
2021/01/03 14:45:12;;;;;;;27.37;20.37;;;3.50;99.90;;;;;;4978543;28;20478;-63
2021/01/03 14:47:48;;;;;;;27.33;21.10;;;3.50;99.90;;;;;;4977642;28;20973;-63
2021/01/03 14:50:26;;;;;;;26.93;20.20;;;3.40;99.90;;;;;;4977846;28;20442;-63
2021/01/03 14:53:05;;;;;;;22.83;18.33;;;3.50;99.90;;;;;;4977437;28;20881;-63
2021/01/03 14:56:22;;;;;;;25.50;19.83;;;3.50;99.90;;;;;;4977377;28;20485;-63
2021/01/03 14:59:22;;;;;;;23.80;17.83;;;3.50;99.90;;;;;;4914918;28;20462;-63
2021/01/03 15:01:57;;;;;;;26.17;20.17;;;3.50;99.90;;;;;;4977605;28;20454;-63
2021/01/03 15:04:29;;;;;;;27.83;20.63;;;3.50;99.90;;;;;;4977005;28;20470;-64
2021/01/03 15:07:01;;;;;;;28.47;20.90;;;3.40;99.90;;;;;;4977165;28;20984;-63
2021/01/03 15:09:28;;;;;;;29.97;21.43;;;3.30;99.90;;;;;;4977337;28;20493;-62
2021/01/03 15:11:57;;;;;;;25.60;20.07;;;3.20;99.90;;;;;;4977114;28;20431;-62
2021/01/03 15:14:25;;;;;;;23.27;19.57;;;3.20;99.90;;;;;;4977244;28;20537;-65
2021/01/03 15:17:01;;;;;;;28.60;21.37;;;3.30;99.90;;;;;;4977285;28;20454;-63
2021/01/03 15:19:37;;;;;;;24.37;19.37;;;3.30;99.90;;;;;;4978527;28;20497;-62
2021/01/03 15:22:04;;;;;;;25.20;19.93;;;3.30;99.90;;;;;;4978544;28;20443;-63
2021/01/03 15:24:31;;;;;;;24.70;18.83;;;3.30;99.90;;;;;;4977719;28;21011;-63
2021/01/03 15:27:06;;;;;;;25.53;20.00;;;3.20;99.90;;;;;;4977892;28;20474;-63
2021/01/03 15:29:36;;;;;;;29.90;19.40;;;3.30;99.90;;;;;;4977887;28;20445;-63
2021/01/03 15:32:07;;;;;;;25.60;19.17;;;3.30;99.90;;;;;;4978162;28;20447;-64
2021/01/03 15:34:46;;;;;;;25.00;19.53;;;3.30;99.90;;;;;;4982430;28;20482;-64
2021/01/03 15:37:42;;;;;;;26.87;21.43;;;3.20;99.90;;;;;;4977083;28;20442;-64
2021/01/03 15:40:12;;;;;;;24.37;19.20;;;3.30;99.90;;;;;;4976982;28;20502;-64
2021/01/03 15:42:43;;;;;;;29.63;21.13;;;3.30;99.90;;;;;;4976876;28;20486;-64
2021/01/03 15:45:19;;;;;;;25.30;20.10;;;3.30;99.90;;;;;;4976513;28;20478;-62
2021/01/03 15:47:49;;;;;;;25.50;19.83;;;3.40;99.90;;;;;;4976820;28;20466;-64
2021/01/03 15:50:16;;;;;;;27.43;21.33;;;3.30;99.90;;;;;;4987201;28;20443;-63
2021/01/03 15:52:45;;;;;;;28.20;20.50;;;3.30;99.90;;;;;;4991592;28;20817;-62
2021/01/03 15:55:13;;;;;;;26.20;19.67;;;3.30;99.90;;;;;;4991875;28;20486;-63
2021/01/03 15:57:40;;;;;;;28.60;21.20;;;3.30;99.90;;;;;;4992139;28;20439;-63
2021/01/03 16:00:08;;;;;;;30.50;21.70;;;3.20;99.90;;;;;;4990402;28;20474;-63
2021/01/03 16:02:37;;;;;;;26.90;21.40;;;3.30;99.90;;;;;;4982731;28;20454;-65
2021/01/03 16:05:05;;;;;;;27.37;20.20;;;3.20;99.90;;;;;;4977328;28;20474;-63
2021/01/03 16:07:31;;;;;;;26.80;22.17;;;3.20;99.90;;;;;;4977151;28;20479;-63
2021/01/03 16:09:57;;;;;;;30.73;24.63;;;3.20;99.90;;;;;;4976792;28;20454;-63
2021/01/03 16:12:23;;;;;;;29.23;22.10;;;3.20;99.90;;;;;;4976375;28;20458;-63
2021/01/03 16:14:49;;;;;;;34.97;27.20;;;3.20;99.90;;;;;;4975810;28;20475;-63
2021/01/03 16:17:16;;;;;;;30.57;21.50;;;3.20;99.90;;;;;;4975956;28;20451;-63
2021/01/03 16:19:45;;;;;;;26.57;20.03;;;3.30;99.90;;;;;;4975952;28;20587;-63
2021/01/03 16:22:45;;;;;;;30.83;22.80;;;3.20;99.90;;;;;;4976082;28;20542;-62
2021/01/03 16:25:32;;;;;;;27.67;21.90;;;3.20;99.90;;;;;;4968567;28;20570;-62
2021/01/03 16:28:04;;;;;;;31.53;23.87;;;3.10;99.90;;;;;;4975926;28;20470;-63
2021/01/03 16:30:37;;;;;;;35.93;25.63;;;3.10;99.90;;;;;;4976322;28;20906;-62
2021/01/03 16:33:07;;;;;;;31.30;24.63;;;3.10;99.90;;;;;;4977955;28;20861;-63
2021/01/03 16:35:48;;;;;;;29.90;22.80;;;3.10;99.90;;;;;;4976991;28;20483;-63
2021/01/03 16:38:35;;;;;;;30.50;23.30;;;3.10;99.90;;;;;;4976298;28;20442;-63
2021/01/03 16:41:06;;;;;;;24.35;19.95;;;3.10;99.90;;;;;;4976716;28;20349;-63
2021/01/03 16:43:36;;;;;;;30.17;22.30;;;3.10;99.90;;;;;;4975589;28;20191;-64
2021/01/03 16:46:18;;;;;;;28.83;21.83;;;3.10;99.90;;;;;;4976135;28;20475;-62
2021/01/03 16:49:08;;;;;;;26.30;20.57;;;3.10;99.90;;;;;;4976021;28;20443;-64
2021/01/03 16:51:43;;;;;;;27.70;20.43;;;3.10;99.90;;;;;;4975533;28;20446;-63
2021/01/03 16:54:33;;;;;;;31.30;24.60;;;3.10;99.90;;;;;;4975531;28;20442;-63
2021/01/03 16:57:23;;;;;;;27.00;20.83;;;3.00;99.90;;;;;;4975629;28;20435;-63
2021/01/03 17:00:17;;;;;;;26.80;20.20;;;2.90;99.90;;;;;;4953773;28;20462;-63
2021/01/03 17:02:47;;;;;;;27.10;21.27;;;2.90;99.90;;;;;;4975903;28;20450;-63
2021/01/03 17:05:16;;;;;;;29.70;22.10;;;2.90;99.90;;;;;;4976971;28;20475;-64
2021/01/03 17:07:50;;;;;;;30.80;21.70;;;2.90;99.90;;;;;;4981916;28;20482;-63
2021/01/03 17:10:32;;;;;;;23.40;19.60;;;2.90;99.90;;;;;;4981946;28;20435;-63
2021/01/03 17:13:46;;;;;;;21.77;18.17;;;2.90;99.90;;;;;;4981766;28;20447;-63
2021/01/03 17:16:17;;;;;;;23.90;18.70;;;3.00;99.90;;;;;;4980256;28;20474;-63
2021/01/03 17:18:57;;;;;;;22.27;19.00;;;2.90;99.90;;;;;;4976119;28;20443;-63
2021/01/03 17:21:38;;;;;;;22.97;19.33;;;2.90;99.90;;;;;;4976235;28;20536;-63
2021/01/03 17:24:15;;;;;;;22.73;18.63;;;3.00;99.90;;;;;;4975606;28;20936;-63
2021/01/03 17:26:49;;;;;;;23.33;18.80;;;2.90;99.90;;;;;;4975462;28;20513;-63
2021/01/03 17:29:42;;;;;;;24.70;18.67;;;2.90;99.90;;;;;;4975930;28;20438;-63
2021/01/03 17:32:32;;;;;;;24.03;19.90;;;2.90;99.90;;;;;;4975203;28;20906;-63
2021/01/03 17:35:11;;;;;;;23.90;18.80;;;2.90;99.90;;;;;;4976074;28;20483;-64
2021/01/03 17:38:01;;;;;;;25.80;19.17;;;2.80;99.90;;;;;;4975783;28;20473;-63
2021/01/03 17:40:30;;;;;;;28.03;20.70;;;2.70;99.90;;;;;;4973949;28;20462;-63
2021/01/03 17:42:59;;;;;;;23.63;19.70;;;2.80;99.90;;;;;;4975474;28;20525;-64
2021/01/03 17:45:31;;;;;;;25.80;20.50;;;2.80;99.90;;;;;;4975109;28;20481;-63
2021/01/03 17:47:59;;;;;;;25.30;19.87;;;2.90;99.90;;;;;;4975295;28;20462;-63
2021/01/03 17:50:28;;;;;;;26.60;20.90;;;2.90;99.90;;;;;;4975310;28;20553;-63
2021/01/03 17:52:58;;;;;;;28.17;22.10;;;2.90;99.90;;;;;;4975344;28;20862;-63
2021/01/03 17:55:24;;;;;;;25.57;20.17;;;2.90;99.90;;;;;;4975154;28;20478;-64
2021/01/03 17:57:53;;;;;;;27.30;19.80;;;3.00;99.90;;;;;;4974841;28;20945;-64
2021/01/03 18:00:21;;;;;;;27.60;19.43;;;3.00;99.90;;;;;;4974955;28;20458;-63